sensor_id;sensor_type;location;lat;lon;timestamp;P1;durP1;ratioP1;P2;durP2;ratioP2
18544;SDS011;9402;51.460;7.276;2023-07-20T00:00:31;11.80;;;5.03;;
18544;SDS011;9402;51.460;7.276;2023-07-20T00:02:33;7.67;;;5.07;;
18544;SDS011;9402;51.460;7.276;2023-07-20T00:04:33;6.80;;;4.30;;
18544;SDS011;9402;51.460;7.276;2023-07-20T00:06:35;9.83;;;5.40;;
18544;SDS011;9402;51.460;7.276;2023-07-20T00:08:40;9.80;;;4.77;;
18544;SDS011;9402;51.460;7.276;2023-07-20T00:10:43;13.67;;;6.33;;
18544;SDS011;9402;51.460;7.276;2023-07-20T00:12:45;11.03;;;5.13;;
18544;SDS011;9402;51.460;7.276;2023-07-20T00:14:47;16.23;;;6.00;;
18544;SDS011;9402;51.460;7.276;2023-07-20T00:16:49;9.40;;;5.20;;
18544;SDS011;9402;51.460;7.276;2023-07-20T00:18:55;10.30;;;5.80;;
18544;SDS011;9402;51.460;7.276;2023-07-20T00:20:57;11.60;;;5.27;;
18544;SDS011;9402;51.460;7.276;2023-07-20T00:23:00;15.33;;;5.60;;
18544;SDS011;9402;51.460;7.276;2023-07-20T00:25:02;6.17;;;4.73;;
18544;SDS011;9402;51.460;7.276;2023-07-20T00:27:05;10.40;;;4.70;;
18544;SDS011;9402;51.460;7.276;2023-07-20T00:29:06;9.23;;;5.00;;
18544;SDS011;9402;51.460;7.276;2023-07-20T00:31:08;9.40;;;5.00;;
18544;SDS011;9402;51.460;7.276;2023-07-20T00:35:09;9.45;;;5.07;;
18544;SDS011;9402;51.460;7.276;2023-07-20T00:37:11;6.60;;;4.40;;
18544;SDS011;9402;51.460;7.276;2023-07-20T00:39:13;10.77;;;5.00;;
18544;SDS011;9402;51.460;7.276;2023-07-20T00:41:15;12.17;;;5.67;;
18544;SDS011;9402;51.460;7.276;2023-07-20T00:43:18;12.00;;;4.77;;
18544;SDS011;9402;51.460;7.276;2023-07-20T00:45:19;15.67;;;5.20;;
18544;SDS011;9402;51.460;7.276;2023-07-20T00:47:21;7.53;;;5.67;;
18544;SDS011;9402;51.460;7.276;2023-07-20T00:49:22;12.87;;;5.13;;
18544;SDS011;9402;51.460;7.276;2023-07-20T00:51:25;11.00;;;5.93;;
18544;SDS011;9402;51.460;7.276;2023-07-20T00:53:27;11.00;;;5.83;;
18544;SDS011;9402;51.460;7.276;2023-07-20T00:55:29;9.50;;;6.67;;
18544;SDS011;9402;51.460;7.276;2023-07-20T00:57:30;8.03;;;4.70;;
18544;SDS011;9402;51.460;7.276;2023-07-20T00:59:33;8.10;;;5.40;;
18544;SDS011;9402;51.460;7.276;2023-07-20T01:01:35;10.00;;;5.63;;
18544;SDS011;9402;51.460;7.276;2023-07-20T01:03:37;13.03;;;7.13;;
18544;SDS011;9402;51.460;7.276;2023-07-20T01:05:40;9.10;;;5.63;;
18544;SDS011;9402;51.460;7.276;2023-07-20T01:07:46;10.30;;;6.00;;
18544;SDS011;9402;51.460;7.276;2023-07-20T01:09:55;7.47;;;5.33;;
18544;SDS011;9402;51.460;7.276;2023-07-20T01:12:02;9.67;;;5.03;;
18544;SDS011;9402;51.460;7.276;2023-07-20T01:14:08;13.20;;;4.83;;
18544;SDS011;9402;51.460;7.276;2023-07-20T01:16:11;10.40;;;6.10;;
18544;SDS011;9402;51.460;7.276;2023-07-20T01:18:12;8.43;;;5.50;;
18544;SDS011;9402;51.460;7.276;2023-07-20T01:20:14;9.83;;;6.40;;
18544;SDS011;9402;51.460;7.276;2023-07-20T01:22:21;12.20;;;6.27;;
18544;SDS011;9402;51.460;7.276;2023-07-20T01:27:26;10.43;;;6.90;;
18544;SDS011;9402;51.460;7.276;2023-07-20T01:29:43;14.27;;;6.87;;
18544;SDS011;9402;51.460;7.276;2023-07-20T01:31:58;11.90;;;6.37;;
18544;SDS011;9402;51.460;7.276;2023-07-20T01:34:01;10.63;;;6.20;;
18544;SDS011;9402;51.460;7.276;2023-07-20T01:36:03;10.80;;;6.27;;
18544;SDS011;9402;51.460;7.276;2023-07-20T01:38:05;12.60;;;7.00;;
18544;SDS011;9402;51.460;7.276;2023-07-20T01:40:08;13.50;;;6.77;;
18544;SDS011;9402;51.460;7.276;2023-07-20T01:42:11;12.93;;;6.67;;
18544;SDS011;9402;51.460;7.276;2023-07-20T01:44:12;12.23;;;6.50;;
18544;SDS011;9402;51.460;7.276;2023-07-20T01:46:13;14.30;;;6.13;;
18544;SDS011;9402;51.460;7.276;2023-07-20T01:48:16;13.40;;;6.70;;
18544;SDS011;9402;51.460;7.276;2023-07-20T01:50:18;13.77;;;7.10;;
18544;SDS011;9402;51.460;7.276;2023-07-20T01:52:20;11.07;;;6.93;;
18544;SDS011;9402;51.460;7.276;2023-07-20T01:54:21;12.83;;;8.20;;
18544;SDS011;9402;51.460;7.276;2023-07-20T01:56:27;10.50;;;7.57;;
18544;SDS011;9402;51.460;7.276;2023-07-20T01:58:29;8.90;;;6.67;;
18544;SDS011;9402;51.460;7.276;2023-07-20T02:00:31;13.50;;;7.67;;
18544;SDS011;9402;51.460;7.276;2023-07-20T02:02:31;10.43;;;7.57;;
18544;SDS011;9402;51.460;7.276;2023-07-20T02:04:34;11.50;;;7.57;;
18544;SDS011;9402;51.460;7.276;2023-07-20T02:06:36;15.80;;;7.40;;
18544;SDS011;9402;51.460;7.276;2023-07-20T02:08:38;22.10;;;8.03;;
18544;SDS011;9402;51.460;7.276;2023-07-20T02:10:40;9.17;;;6.80;;
18544;SDS011;9402;51.460;7.276;2023-07-20T02:12:42;10.03;;;6.60;;
18544;SDS011;9402;51.460;7.276;2023-07-20T02:14:43;11.90;;;7.93;;
18544;SDS011;9402;51.460;7.276;2023-07-20T02:16:45;10.93;;;6.20;;
18544;SDS011;9402;51.460;7.276;2023-07-20T02:18:47;11.40;;;6.90;;
18544;SDS011;9402;51.460;7.276;2023-07-20T02:20:50;13.93;;;8.03;;
18544;SDS011;9402;51.460;7.276;2023-07-20T02:22:54;22.20;;;7.93;;
18544;SDS011;9402;51.460;7.276;2023-07-20T02:24:54;12.73;;;7.80;;
18544;SDS011;9402;51.460;7.276;2023-07-20T02:26:56;16.27;;;9.40;;
18544;SDS011;9402;51.460;7.276;2023-07-20T02:28:58;17.50;;;9.53;;
18544;SDS011;9402;51.460;7.276;2023-07-20T02:30:59;15.33;;;9.23;;
18544;SDS011;9402;51.460;7.276;2023-07-20T02:33:01;14.60;;;9.13;;
18544;SDS011;9402;51.460;7.276;2023-07-20T02:35:03;10.63;;;8.83;;
18544;SDS011;9402;51.460;7.276;2023-07-20T02:37:06;17.53;;;9.67;;
18544;SDS011;9402;51.460;7.276;2023-07-20T02:39:08;14.10;;;8.57;;
18544;SDS011;9402;51.460;7.276;2023-07-20T02:41:10;12.77;;;7.73;;
18544;SDS011;9402;51.460;7.276;2023-07-20T02:43:11;14.40;;;9.50;;
18544;SDS011;9402;51.460;7.276;2023-07-20T02:45:13;13.80;;;8.90;;
18544;SDS011;9402;51.460;7.276;2023-07-20T02:47:15;18.83;;;9.20;;
18544;SDS011;9402;51.460;7.276;2023-07-20T02:49:16;16.33;;;9.77;;
18544;SDS011;9402;51.460;7.276;2023-07-20T02:51:18;14.87;;;9.57;;
18544;SDS011;9402;51.460;7.276;2023-07-20T02:53:21;17.73;;;10.70;;
18544;SDS011;9402;51.460;7.276;2023-07-20T02:55:22;18.13;;;11.17;;
18544;SDS011;9402;51.460;7.276;2023-07-20T02:57:24;29.93;;;14.70;;
18544;SDS011;9402;51.460;7.276;2023-07-20T02:59:26;18.67;;;12.23;;
18544;SDS011;9402;51.460;7.276;2023-07-20T03:01:27;28.73;;;14.40;;
18544;SDS011;9402;51.460;7.276;2023-07-20T03:03:29;29.97;;;14.40;;
18544;SDS011;9402;51.460;7.276;2023-07-20T03:05:30;20.47;;;11.70;;
18544;SDS011;9402;51.460;7.276;2023-07-20T03:07:32;22.63;;;12.57;;
18544;SDS011;9402;51.460;7.276;2023-07-20T03:09:35;16.60;;;11.60;;
18544;SDS011;9402;51.460;7.276;2023-07-20T03:11:36;20.70;;;12.47;;
18544;SDS011;9402;51.460;7.276;2023-07-20T03:13:38;20.00;;;11.93;;
18544;SDS011;9402;51.460;7.276;2023-07-20T03:15:39;18.83;;;11.13;;
18544;SDS011;9402;51.460;7.276;2023-07-20T03:17:41;22.73;;;12.77;;
18544;SDS011;9402;51.460;7.276;2023-07-20T03:19:43;20.70;;;11.73;;
18544;SDS011;9402;51.460;7.276;2023-07-20T03:21:45;19.53;;;11.13;;
18544;SDS011;9402;51.460;7.276;2023-07-20T03:23:46;23.53;;;12.93;;
18544;SDS011;9402;51.460;7.276;2023-07-20T03:25:49;19.43;;;11.70;;
18544;SDS011;9402;51.460;7.276;2023-07-20T03:27:53;20.60;;;11.67;;
18544;SDS011;9402;51.460;7.276;2023-07-20T03:29:55;23.03;;;12.83;;
18544;SDS011;9402;51.460;7.276;2023-07-20T03:31:56;21.17;;;12.00;;
18544;SDS011;9402;51.460;7.276;2023-07-20T03:33:59;25.40;;;13.90;;
18544;SDS011;9402;51.460;7.276;2023-07-20T03:36:00;16.13;;;12.70;;
18544;SDS011;9402;51.460;7.276;2023-07-20T03:38:02;21.67;;;13.50;;
18544;SDS011;9402;51.460;7.276;2023-07-20T03:40:04;25.60;;;16.03;;
18544;SDS011;9402;51.460;7.276;2023-07-20T03:42:09;26.67;;;17.03;;
18544;SDS011;9402;51.460;7.276;2023-07-20T03:44:10;28.60;;;16.37;;
18544;SDS011;9402;51.460;7.276;2023-07-20T03:46:12;24.30;;;16.77;;
18544;SDS011;9402;51.460;7.276;2023-07-20T03:48:13;27.67;;;17.03;;
18544;SDS011;9402;51.460;7.276;2023-07-20T03:50:16;25.33;;;17.03;;
18544;SDS011;9402;51.460;7.276;2023-07-20T03:52:17;37.63;;;18.40;;
18544;SDS011;9402;51.460;7.276;2023-07-20T03:54:19;28.47;;;17.43;;
18544;SDS011;9402;51.460;7.276;2023-07-20T03:56:20;29.63;;;17.60;;
18544;SDS011;9402;51.460;7.276;2023-07-20T03:58:24;31.90;;;18.63;;
18544;SDS011;9402;51.460;7.276;2023-07-20T04:00:26;42.47;;;21.60;;
18544;SDS011;9402;51.460;7.276;2023-07-20T04:02:27;26.20;;;16.60;;
18544;SDS011;9402;51.460;7.276;2023-07-20T04:04:29;26.43;;;18.07;;
18544;SDS011;9402;51.460;7.276;2023-07-20T04:06:30;27.30;;;16.60;;
18544;SDS011;9402;51.460;7.276;2023-07-20T04:08:31;24.80;;;16.77;;
18544;SDS011;9402;51.460;7.276;2023-07-20T04:10:32;28.33;;;19.37;;
18544;SDS011;9402;51.460;7.276;2023-07-20T04:12:34;30.50;;;20.67;;
18544;SDS011;9402;51.460;7.276;2023-07-20T04:14:37;29.37;;;19.60;;
18544;SDS011;9402;51.460;7.276;2023-07-20T04:16:39;37.83;;;22.13;;
18544;SDS011;9402;51.460;7.276;2023-07-20T04:18:40;27.77;;;19.30;;
18544;SDS011;9402;51.460;7.276;2023-07-20T04:20:42;34.80;;;22.33;;
18544;SDS011;9402;51.460;7.276;2023-07-20T04:22:44;37.80;;;20.77;;
18544;SDS011;9402;51.460;7.276;2023-07-20T04:24:44;34.33;;;21.67;;
18544;SDS011;9402;51.460;7.276;2023-07-20T04:26:46;35.07;;;23.17;;
18544;SDS011;9402;51.460;7.276;2023-07-20T04:28:47;28.43;;;20.50;;
18544;SDS011;9402;51.460;7.276;2023-07-20T04:30:52;43.73;;;25.67;;
18544;SDS011;9402;51.460;7.276;2023-07-20T04:32:53;38.40;;;24.23;;
18544;SDS011;9402;51.460;7.276;2023-07-20T04:34:55;33.03;;;24.23;;
18544;SDS011;9402;51.460;7.276;2023-07-20T04:36:57;38.73;;;24.70;;
18544;SDS011;9402;51.460;7.276;2023-07-20T04:38:58;38.80;;;26.63;;
18544;SDS011;9402;51.460;7.276;2023-07-20T04:41:00;39.50;;;26.50;;
18544;SDS011;9402;51.460;7.276;2023-07-20T04:43:01;47.53;;;29.03;;
18544;SDS011;9402;51.460;7.276;2023-07-20T04:45:03;52.17;;;31.10;;
18544;SDS011;9402;51.460;7.276;2023-07-20T04:47:06;34.70;;;25.63;;
18544;SDS011;9402;51.460;7.276;2023-07-20T04:49:09;40.83;;;25.97;;
18544;SDS011;9402;51.460;7.276;2023-07-20T04:51:12;37.07;;;24.60;;
18544;SDS011;9402;51.460;7.276;2023-07-20T04:53:13;40.80;;;25.50;;
18544;SDS011;9402;51.460;7.276;2023-07-20T04:55:14;34.73;;;24.90;;
18544;SDS011;9402;51.460;7.276;2023-07-20T04:57:16;40.27;;;26.00;;
18544;SDS011;9402;51.460;7.276;2023-07-20T04:59:17;50.83;;;28.37;;
18544;SDS011;9402;51.460;7.276;2023-07-20T05:01:19;37.77;;;28.03;;
18544;SDS011;9402;51.460;7.276;2023-07-20T05:03:22;38.27;;;25.80;;
18544;SDS011;9402;51.460;7.276;2023-07-20T05:05:23;39.07;;;26.90;;
18544;SDS011;9402;51.460;7.276;2023-07-20T05:07:25;51.47;;;30.07;;
18544;SDS011;9402;51.460;7.276;2023-07-20T05:09:27;41.40;;;28.43;;
18544;SDS011;9402;51.460;7.276;2023-07-20T05:11:28;41.13;;;27.10;;
18544;SDS011;9402;51.460;7.276;2023-07-20T05:13:30;36.53;;;24.23;;
18544;SDS011;9402;51.460;7.276;2023-07-20T05:15:32;33.33;;;24.57;;
18544;SDS011;9402;51.460;7.276;2023-07-20T05:17:34;35.77;;;25.47;;
18544;SDS011;9402;51.460;7.276;2023-07-20T05:19:36;38.50;;;24.40;;
18544;SDS011;9402;51.460;7.276;2023-07-20T05:21:37;34.90;;;22.43;;
18544;SDS011;9402;51.460;7.276;2023-07-20T05:23:39;32.03;;;23.37;;
18544;SDS011;9402;51.460;7.276;2023-07-20T05:25:40;32.00;;;23.87;;
18544;SDS011;9402;51.460;7.276;2023-07-20T05:27:42;32.43;;;23.10;;
18544;SDS011;9402;51.460;7.276;2023-07-20T05:29:43;33.83;;;23.20;;
18544;SDS011;9402;51.460;7.276;2023-07-20T05:31:45;35.03;;;21.60;;
18544;SDS011;9402;51.460;7.276;2023-07-20T05:33:46;29.00;;;20.00;;
18544;SDS011;9402;51.460;7.276;2023-07-20T05:35:49;24.83;;;19.20;;
18544;SDS011;9402;51.460;7.276;2023-07-20T05:37:51;26.93;;;17.57;;
18544;SDS011;9402;51.460;7.276;2023-07-20T05:39:53;22.63;;;17.90;;
18544;SDS011;9402;51.460;7.276;2023-07-20T05:41:54;27.43;;;21.47;;
18544;SDS011;9402;51.460;7.276;2023-07-20T05:43:56;23.43;;;19.30;;
18544;SDS011;9402;51.460;7.276;2023-07-20T05:45:57;22.37;;;19.80;;
18544;SDS011;9402;51.460;7.276;2023-07-20T05:47:59;17.13;;;15.13;;
18544;SDS011;9402;51.460;7.276;2023-07-20T05:50:00;17.97;;;15.40;;
18544;SDS011;9402;51.460;7.276;2023-07-20T05:52:05;22.63;;;14.20;;
18544;SDS011;9402;51.460;7.276;2023-07-20T05:54:07;16.63;;;14.00;;
18544;SDS011;9402;51.460;7.276;2023-07-20T05:56:08;21.33;;;14.70;;
18544;SDS011;9402;51.460;7.276;2023-07-20T05:58:10;15.33;;;13.10;;
18544;SDS011;9402;51.460;7.276;2023-07-20T06:00:12;16.60;;;14.73;;
18544;SDS011;9402;51.460;7.276;2023-07-20T06:02:14;17.07;;;14.40;;
18544;SDS011;9402;51.460;7.276;2023-07-20T06:04:15;19.67;;;15.37;;
18544;SDS011;9402;51.460;7.276;2023-07-20T06:06:16;22.80;;;14.77;;
18544;SDS011;9402;51.460;7.276;2023-07-20T06:08:19;18.20;;;14.73;;
18544;SDS011;9402;51.460;7.276;2023-07-20T06:10:21;18.20;;;14.17;;
18544;SDS011;9402;51.460;7.276;2023-07-20T06:12:22;22.47;;;16.10;;
18544;SDS011;9402;51.460;7.276;2023-07-20T06:14:24;16.77;;;13.67;;
18544;SDS011;9402;51.460;7.276;2023-07-20T06:16:25;28.73;;;16.80;;
18544;SDS011;9402;51.460;7.276;2023-07-20T06:18:27;25.20;;;16.80;;
18544;SDS011;9402;51.460;7.276;2023-07-20T06:20:29;20.97;;;18.70;;
18544;SDS011;9402;51.460;7.276;2023-07-20T06:22:30;20.10;;;16.37;;
18544;SDS011;9402;51.460;7.276;2023-07-20T06:24:33;19.37;;;14.40;;
18544;SDS011;9402;51.460;7.276;2023-07-20T06:26:35;20.13;;;15.77;;
18544;SDS011;9402;51.460;7.276;2023-07-20T06:28:39;21.83;;;16.23;;
18544;SDS011;9402;51.460;7.276;2023-07-20T06:30:39;24.20;;;19.33;;
18544;SDS011;9402;51.460;7.276;2023-07-20T06:32:41;22.60;;;18.70;;
18544;SDS011;9402;51.460;7.276;2023-07-20T06:34:42;24.97;;;19.43;;
18544;SDS011;9402;51.460;7.276;2023-07-20T06:36:44;27.03;;;18.60;;
18544;SDS011;9402;51.460;7.276;2023-07-20T06:38:45;20.90;;;17.70;;
18544;SDS011;9402;51.460;7.276;2023-07-20T06:40:48;19.00;;;16.67;;
18544;SDS011;9402;51.460;7.276;2023-07-20T06:42:50;24.23;;;17.17;;
18544;SDS011;9402;51.460;7.276;2023-07-20T06:44:52;23.30;;;19.40;;
18544;SDS011;9402;51.460;7.276;2023-07-20T06:46:53;16.67;;;14.80;;
18544;SDS011;9402;51.460;7.276;2023-07-20T06:48:55;19.10;;;15.63;;
18544;SDS011;9402;51.460;7.276;2023-07-20T06:50:55;16.47;;;14.70;;
18544;SDS011;9402;51.460;7.276;2023-07-20T06:52:57;15.57;;;13.60;;
18544;SDS011;9402;51.460;7.276;2023-07-20T06:54:58;18.37;;;15.53;;
18544;SDS011;9402;51.460;7.276;2023-07-20T06:57:01;24.00;;;16.87;;
18544;SDS011;9402;51.460;7.276;2023-07-20T06:59:03;17.10;;;14.70;;
18544;SDS011;9402;51.460;7.276;2023-07-20T07:01:05;24.93;;;15.93;;
18544;SDS011;9402;51.460;7.276;2023-07-20T07:03:07;19.47;;;16.67;;
18544;SDS011;9402;51.460;7.276;2023-07-20T07:05:09;16.40;;;14.13;;
18544;SDS011;9402;51.460;7.276;2023-07-20T07:07:10;20.97;;;14.80;;
18544;SDS011;9402;51.460;7.276;2023-07-20T07:09:12;16.07;;;14.37;;
18544;SDS011;9402;51.460;7.276;2023-07-20T07:11:13;12.20;;;10.90;;
18544;SDS011;9402;51.460;7.276;2023-07-20T07:13:16;14.73;;;13.00;;
18544;SDS011;9402;51.460;7.276;2023-07-20T07:15:18;14.40;;;9.60;;
18544;SDS011;9402;51.460;7.276;2023-07-20T07:17:19;10.83;;;9.73;;
18544;SDS011;9402;51.460;7.276;2023-07-20T07:19:21;9.20;;;8.30;;
18544;SDS011;9402;51.460;7.276;2023-07-20T07:21:23;8.40;;;7.70;;
18544;SDS011;9402;51.460;7.276;2023-07-20T07:23:25;11.37;;;8.97;;
18544;SDS011;9402;51.460;7.276;2023-07-20T07:25:27;8.13;;;7.37;;
18544;SDS011;9402;51.460;7.276;2023-07-20T07:27:28;13.03;;;6.63;;
18544;SDS011;9402;51.460;7.276;2023-07-20T07:29:31;8.63;;;7.80;;
18544;SDS011;9402;51.460;7.276;2023-07-20T07:31:33;8.27;;;7.47;;
18544;SDS011;9402;51.460;7.276;2023-07-20T07:33:35;8.97;;;8.00;;
18544;SDS011;9402;51.460;7.276;2023-07-20T07:35:36;7.70;;;7.00;;
18544;SDS011;9402;51.460;7.276;2023-07-20T07:37:38;6.90;;;6.20;;
18544;SDS011;9402;51.460;7.276;2023-07-20T07:39:38;12.67;;;6.43;;
18544;SDS011;9402;51.460;7.276;2023-07-20T07:41:40;11.73;;;9.03;;
18544;SDS011;9402;51.460;7.276;2023-07-20T07:43:41;10.20;;;9.17;;
18544;SDS011;9402;51.460;7.276;2023-07-20T07:45:45;9.40;;;8.40;;
18544;SDS011;9402;51.460;7.276;2023-07-20T07:47:46;8.83;;;8.00;;
18544;SDS011;9402;51.460;7.276;2023-07-20T07:49:48;12.20;;;9.00;;
18544;SDS011;9402;51.460;7.276;2023-07-20T07:51:49;16.53;;;10.10;;
18544;SDS011;9402;51.460;7.276;2023-07-20T07:53:51;7.30;;;6.70;;
18544;SDS011;9402;51.460;7.276;2023-07-20T07:55:52;7.67;;;6.97;;
18544;SDS011;9402;51.460;7.276;2023-07-20T07:57:54;6.93;;;6.23;;
18544;SDS011;9402;51.460;7.276;2023-07-20T07:59:56;6.20;;;5.70;;
18544;SDS011;9402;51.460;7.276;2023-07-20T08:01:58;6.57;;;5.63;;
18544;SDS011;9402;51.460;7.276;2023-07-20T08:04:00;5.77;;;5.37;;
18544;SDS011;9402;51.460;7.276;2023-07-20T08:06:02;6.73;;;5.03;;
18544;SDS011;9402;51.460;7.276;2023-07-20T08:08:04;6.33;;;5.73;;
18544;SDS011;9402;51.460;7.276;2023-07-20T08:10:06;4.63;;;4.23;;
18544;SDS011;9402;51.460;7.276;2023-07-20T08:12:08;4.40;;;4.10;;
18544;SDS011;9402;51.460;7.276;2023-07-20T08:14:10;4.90;;;3.77;;
18544;SDS011;9402;51.460;7.276;2023-07-20T08:16:12;4.90;;;4.40;;
18544;SDS011;9402;51.460;7.276;2023-07-20T08:18:15;5.70;;;3.93;;
18544;SDS011;9402;51.460;7.276;2023-07-20T08:20:17;5.93;;;5.17;;
18544;SDS011;9402;51.460;7.276;2023-07-20T08:22:18;5.23;;;4.73;;
18544;SDS011;9402;51.460;7.276;2023-07-20T08:24:20;6.93;;;6.03;;
18544;SDS011;9402;51.460;7.276;2023-07-20T08:26:22;5.57;;;5.00;;
18544;SDS011;9402;51.460;7.276;2023-07-20T08:28:24;7.00;;;5.70;;
18544;SDS011;9402;51.460;7.276;2023-07-20T08:30:26;7.27;;;6.00;;
18544;SDS011;9402;51.460;7.276;2023-07-20T08:32:41;8.83;;;5.27;;
18544;SDS011;9402;51.460;7.276;2023-07-20T08:34:43;7.00;;;6.20;;
18544;SDS011;9402;51.460;7.276;2023-07-20T08:36:45;6.40;;;4.47;;
18544;SDS011;9402;51.460;7.276;2023-07-20T08:38:47;5.67;;;4.90;;
18544;SDS011;9402;51.460;7.276;2023-07-20T08:40:49;4.90;;;4.00;;
18544;SDS011;9402;51.460;7.276;2023-07-20T08:42:51;4.30;;;4.00;;
18544;SDS011;9402;51.460;7.276;2023-07-20T08:44:52;10.73;;;3.77;;
18544;SDS011;9402;51.460;7.276;2023-07-20T08:46:55;2.90;;;2.70;;
18544;SDS011;9402;51.460;7.276;2023-07-20T08:48:57;4.07;;;3.30;;
18544;SDS011;9402;51.460;7.276;2023-07-20T08:51:00;12.13;;;3.53;;
18544;SDS011;9402;51.460;7.276;2023-07-20T08:53:02;5.33;;;3.23;;
18544;SDS011;9402;51.460;7.276;2023-07-20T08:55:04;3.93;;;3.63;;
18544;SDS011;9402;51.460;7.276;2023-07-20T08:57:06;5.37;;;4.93;;
18544;SDS011;9402;51.460;7.276;2023-07-20T08:59:08;4.50;;;4.10;;
18544;SDS011;9402;51.460;7.276;2023-07-20T09:01:10;4.77;;;4.37;;
18544;SDS011;9402;51.460;7.276;2023-07-20T09:03:12;5.13;;;4.70;;
18544;SDS011;9402;51.460;7.276;2023-07-20T09:05:14;4.30;;;3.90;;
18544;SDS011;9402;51.460;7.276;2023-07-20T09:07:17;4.30;;;3.07;;
18544;SDS011;9402;51.460;7.276;2023-07-20T09:09:20;3.10;;;2.90;;
18544;SDS011;9402;51.460;7.276;2023-07-20T09:11:21;1.90;;;1.80;;
18544;SDS011;9402;51.460;7.276;2023-07-20T09:13:24;2.10;;;1.90;;
18544;SDS011;9402;51.460;7.276;2023-07-20T09:15:25;2.30;;;2.10;;
18544;SDS011;9402;51.460;7.276;2023-07-20T09:17:27;2.20;;;2.00;;
18544;SDS011;9402;51.460;7.276;2023-07-20T09:19:28;2.90;;;2.70;;
18544;SDS011;9402;51.460;7.276;2023-07-20T09:21:30;2.80;;;2.60;;
18544;SDS011;9402;51.460;7.276;2023-07-20T09:23:33;3.43;;;2.50;;
18544;SDS011;9402;51.460;7.276;2023-07-20T09:25:36;2.10;;;2.00;;
18544;SDS011;9402;51.460;7.276;2023-07-20T09:27:38;2.40;;;2.20;;
18544;SDS011;9402;51.460;7.276;2023-07-20T09:29:47;2.60;;;2.40;;
18544;SDS011;9402;51.460;7.276;2023-07-20T09:31:59;3.50;;;2.77;;
18544;SDS011;9402;51.460;7.276;2023-07-20T09:34:02;5.03;;;2.10;;
18544;SDS011;9402;51.460;7.276;2023-07-20T09:36:04;2.60;;;2.40;;
18544;SDS011;9402;51.460;7.276;2023-07-20T09:38:06;2.53;;;2.33;;
18544;SDS011;9402;51.460;7.276;2023-07-20T09:40:10;3.00;;;2.80;;
18544;SDS011;9402;51.460;7.276;2023-07-20T09:42:12;2.00;;;1.90;;
18544;SDS011;9402;51.460;7.276;2023-07-20T09:44:14;2.27;;;2.10;;
18544;SDS011;9402;51.460;7.276;2023-07-20T09:46:16;2.50;;;2.30;;
18544;SDS011;9402;51.460;7.276;2023-07-20T09:48:18;2.43;;;2.23;;
18544;SDS011;9402;51.460;7.276;2023-07-20T09:50:25;3.13;;;2.30;;
18544;SDS011;9402;51.460;7.276;2023-07-20T09:52:26;3.33;;;1.80;;
18544;SDS011;9402;51.460;7.276;2023-07-20T09:54:28;2.00;;;1.80;;
18544;SDS011;9402;51.460;7.276;2023-07-20T09:56:31;1.77;;;1.67;;
18544;SDS011;9402;51.460;7.276;2023-07-20T09:58:34;2.33;;;1.80;;
18544;SDS011;9402;51.460;7.276;2023-07-20T10:00:36;2.57;;;2.30;;
18544;SDS011;9402;51.460;7.276;2023-07-20T10:02:42;2.50;;;2.30;;
18544;SDS011;9402;51.460;7.276;2023-07-20T10:04:44;3.97;;;3.10;;
18544;SDS011;9402;51.460;7.276;2023-07-20T10:06:46;2.87;;;2.50;;
18544;SDS011;9402;51.460;7.276;2023-07-20T10:08:48;3.70;;;2.93;;
18544;SDS011;9402;51.460;7.276;2023-07-20T10:10:51;3.23;;;2.93;;
18544;SDS011;9402;51.460;7.276;2023-07-20T10:12:54;5.63;;;3.27;;
18544;SDS011;9402;51.460;7.276;2023-07-20T10:14:59;3.40;;;3.10;;
18544;SDS011;9402;51.460;7.276;2023-07-20T10:17:10;2.80;;;2.60;;
18544;SDS011;9402;51.460;7.276;2023-07-20T10:19:13;2.73;;;2.40;;
18544;SDS011;9402;51.460;7.276;2023-07-20T10:21:21;2.93;;;2.73;;
18544;SDS011;9402;51.460;7.276;2023-07-20T10:23:23;8.17;;;4.63;;
18544;SDS011;9402;51.460;7.276;2023-07-20T10:25:25;9.37;;;3.63;;
18544;SDS011;9402;51.460;7.276;2023-07-20T10:27:27;3.80;;;3.30;;
18544;SDS011;9402;51.460;7.276;2023-07-20T10:29:30;10.90;;;3.00;;
18544;SDS011;9402;51.460;7.276;2023-07-20T10:31:32;2.87;;;2.63;;
18544;SDS011;9402;51.460;7.276;2023-07-20T10:33:35;2.90;;;2.70;;
18544;SDS011;9402;51.460;7.276;2023-07-20T10:35:52;2.47;;;2.27;;
18544;SDS011;9402;51.460;7.276;2023-07-20T10:37:55;2.57;;;2.37;;
18544;SDS011;9402;51.460;7.276;2023-07-20T10:40:08;2.50;;;2.30;;
18544;SDS011;9402;51.460;7.276;2023-07-20T10:42:25;2.87;;;2.10;;
18544;SDS011;9402;51.460;7.276;2023-07-20T10:44:38;2.43;;;2.20;;
18544;SDS011;9402;51.460;7.276;2023-07-20T10:46:43;2.33;;;2.13;;
18544;SDS011;9402;51.460;7.276;2023-07-20T10:48:58;2.90;;;1.70;;
18544;SDS011;9402;51.460;7.276;2023-07-20T10:51:11;1.50;;;1.40;;
18544;SDS011;9402;51.460;7.276;2023-07-20T10:53:14;4.60;;;1.67;;
18544;SDS011;9402;51.460;7.276;2023-07-20T10:55:17;2.27;;;1.60;;
18544;SDS011;9402;51.460;7.276;2023-07-20T10:57:30;1.77;;;1.57;;
18544;SDS011;9402;51.460;7.276;2023-07-20T10:59:36;3.27;;;1.53;;
18544;SDS011;9402;51.460;7.276;2023-07-20T11:01:38;1.50;;;1.40;;
18544;SDS011;9402;51.460;7.276;2023-07-20T11:03:43;1.30;;;1.20;;
18544;SDS011;9402;51.460;7.276;2023-07-20T11:05:45;2.90;;;1.40;;
18544;SDS011;9402;51.460;7.276;2023-07-20T11:07:45;1.67;;;1.57;;
18544;SDS011;9402;51.460;7.276;2023-07-20T11:09:47;3.03;;;1.90;;
18544;SDS011;9402;51.460;7.276;2023-07-20T11:11:48;1.80;;;1.70;;
18544;SDS011;9402;51.460;7.276;2023-07-20T11:13:54;2.07;;;1.47;;
18544;SDS011;9402;51.460;7.276;2023-07-20T11:16:03;1.73;;;1.30;;
18544;SDS011;9402;51.460;7.276;2023-07-20T11:18:10;1.30;;;1.13;;
18544;SDS011;9402;51.460;7.276;2023-07-20T11:20:13;1.30;;;1.20;;
18544;SDS011;9402;51.460;7.276;2023-07-20T11:22:15;3.00;;;1.10;;
18544;SDS011;9402;51.460;7.276;2023-07-20T11:24:17;2.03;;;1.27;;
18544;SDS011;9402;51.460;7.276;2023-07-20T11:26:19;1.33;;;1.23;;
18544;SDS011;9402;51.460;7.276;2023-07-20T11:28:21;2.30;;;1.20;;
18544;SDS011;9402;51.460;7.276;2023-07-20T11:30:22;1.40;;;1.30;;
18544;SDS011;9402;51.460;7.276;2023-07-20T11:32:25;3.23;;;1.10;;
18544;SDS011;9402;51.460;7.276;2023-07-20T11:34:27;1.97;;;1.57;;
18544;SDS011;9402;51.460;7.276;2023-07-20T11:36:30;2.33;;;1.20;;
18544;SDS011;9402;51.460;7.276;2023-07-20T11:38:31;1.30;;;1.20;;
18544;SDS011;9402;51.460;7.276;2023-07-20T11:40:33;3.50;;;1.10;;
18544;SDS011;9402;51.460;7.276;2023-07-20T11:42:34;1.57;;;1.47;;
18544;SDS011;9402;51.460;7.276;2023-07-20T11:44:36;1.20;;;1.10;;
18544;SDS011;9402;51.460;7.276;2023-07-20T11:46:37;1.70;;;1.30;;
18544;SDS011;9402;51.460;7.276;2023-07-20T11:48:40;1.57;;;1.20;;
18544;SDS011;9402;51.460;7.276;2023-07-20T11:50:42;0.90;;;0.80;;
18544;SDS011;9402;51.460;7.276;2023-07-20T11:52:43;1.13;;;1.03;;
18544;SDS011;9402;51.460;7.276;2023-07-20T11:54:45;8.70;;;0.97;;
18544;SDS011;9402;51.460;7.276;2023-07-20T11:56:47;6.70;;;1.20;;
18544;SDS011;9402;51.460;7.276;2023-07-20T11:58:49;1.23;;;1.10;;
18544;SDS011;9402;51.460;7.276;2023-07-20T12:00:49;1.00;;;0.90;;
18544;SDS011;9402;51.460;7.276;2023-07-20T12:02:52;2.33;;;1.00;;
18544;SDS011;9402;51.460;7.276;2023-07-20T12:04:56;2.03;;;1.20;;
18544;SDS011;9402;51.460;7.276;2023-07-20T12:06:57;1.10;;;0.90;;
18544;SDS011;9402;51.460;7.276;2023-07-20T12:08:59;1.10;;;1.00;;
18544;SDS011;9402;51.460;7.276;2023-07-20T12:11:01;4.03;;;1.10;;
18544;SDS011;9402;51.460;7.276;2023-07-20T12:13:02;1.27;;;0.90;;
18544;SDS011;9402;51.460;7.276;2023-07-20T12:17:29;1.00;;;0.80;;
18544;SDS011;9402;51.460;7.276;2023-07-20T12:19:31;4.10;;;1.10;;
18544;SDS011;9402;51.460;7.276;2023-07-20T12:21:35;1.37;;;1.00;;
18544;SDS011;9402;51.460;7.276;2023-07-20T12:23:38;1.87;;;1.10;;
18544;SDS011;9402;51.460;7.276;2023-07-20T12:25:40;2.80;;;1.20;;